Latest Coastal Weather Observations for Parndana

IDS60701

Issued at 2:45 am CST Wednesday 3 September 2014 (issued every 10 minutes, with the page automatically refreshed every 10 minutes)

About coastal observations | Map of coastal stations | Coastal observations for SA | Marine services | Other Formats
Station Details ID: 022843 Name: PARNDANA CFS AWS Lat: -35.79 Lon: 137.25 Height: 165.0 m
Data from the previous 72 hours. | See also: Recent months at Parndana
Date/Time
CST
Temp

°C
Wind Pressure Rain
since 9am
mm
Weather Cloud Vis
km
Sea
Height
m
Swell
Dir
 
Speed
knots
Gust
knots
hPa Trend Height
m
Period
s
Dir
03/02:30am 5.6 ESE 1 3 - - 1.8 - - - - - - -
03/02:00am 5.0 CALM 0 0 - - 1.8 - - - - - - -
03/01:30am 4.7 CALM 0 1 - - 1.8 - - - - - - -
03/01:00am 4.5 WSW 2 3 - - 1.8 - - - - - - -
03/12:30am 5.0 CALM 0 0 - - 1.8 - - - - - - -
03/12:00am 4.7 SW 2 2 - - 1.8 - - - - - - -
 
Date/Time
CST
Temp

°C
Wind Pressure Rain
since 9am
mm
Weather Cloud Vis
km
Sea
Height
m
Swell
Dir
 
Speed
knots
Gust
knots
hPa Trend Height
m
Period
s
Dir
02/11:30pm 5.3 SW 2 2 - - 1.8 - - - - - - -
02/11:00pm 5.4 S 2 3 - - 1.8 - - - - - - -
02/10:30pm 4.8 SW 3 4 - - 1.8 - - - - - - -
02/10:00pm 5.8 SSW 2 3 - - 1.8 - - - - - - -
02/09:30pm 6.4 S 2 3 - - 1.8 - - - - - - -
02/09:00pm 6.5 S 4 5 - - 1.8 - - - - - - -
02/08:30pm 6.0 SSE 5 5 - - 1.8 - - - - - - -
02/08:00pm 6.9 SW 2 3 - - 1.8 - - - - - - -
02/07:30pm 8.1 S 3 4 - - 1.8 - - - - - - -
02/07:00pm 8.1 S 4 4 - - 1.8 - - - - - - -
02/06:30pm 8.4 SSW 4 5 - - 1.8 - - - - - - -
02/06:00pm 9.0 S 6 8 - - 1.8 - - - - - - -
02/05:30pm 9.8 SSE 7 10 - - 1.8 - - - - - - -
02/05:00pm 10.4 S 6 9 - - 1.8 - - - - - - -
02/04:30pm 10.3 SSE 10 12 - - 1.8 - - - - - - -
02/04:00pm 10.5 S 10 13 - - 1.8 - - - - - - -
02/03:30pm 10.3 S 9 12 - - 1.8 - - - - - - -
02/03:00pm 10.8 SSW 9 13 - - 1.0 - - - - - - -
02/02:30pm 11.6 S 10 16 - - 1.0 - - - - - - -
02/02:00pm 10.0 S 10 15 - - 1.0 - - - - - - -
02/01:30pm 11.5 S 12 16 - - 0.2 - - - - - - -
02/01:00pm 11.2 S 12 17 - - 0.2 - - - - - - -
02/12:30pm 10.5 SSW 14 19 - - 0.2 - - - - - - -
02/12:00pm 12.0 S 12 16 - - 0.2 - - - - - - -
02/11:30am 12.7 S 13 18 - - 0.2 - - - - - - -
02/11:00am 11.4 S 15 22 - - 0.2 - - - - - - -
02/10:30am 11.4 S 12 20 - - 0.0 - - - - - - -
02/10:00am 10.5 S 14 22 - - 0.0 - - - - - - -
02/09:30am 11.7 S 12 19 - - 0.0 - - - - - - -
02/09:00am 11.4 S 11 18 - - 2.4 - - - - - - -
02/08:30am 9.8 S 8 14 - - 2.4 - - - - - - -
02/08:00am 9.4 SSW 8 11 - - 2.4 - - - - - - -
02/07:30am 8.8 S 8 10 - - 2.2 - - - - - - -
02/07:00am 8.3 SSW 8 13 - - 2.2 - - - - - - -
02/06:30am 7.9 SSW 8 12 - - 2.2 - - - - - - -
02/06:00am 8.4 SSW 11 17 - - 2.2 - - - - - - -
02/05:30am 7.3 SSW 6 8 - - 2.2 - - - - - - -
02/05:00am 7.7 SSW 8 10 - - 2.2 - - - - - - -
02/04:30am 7.5 SSW 9 12 - - 2.2 - - - - - - -
02/04:00am 7.8 SSW 9 13 - - 2.2 - - - - - - -
02/03:30am 7.6 SSW 11 16 - - 2.2 - - - - - - -
02/03:00am 7.5 SW 9 13 - - 2.2 - - - - - - -
02/02:30am 7.1 SW 8 11 - - 2.2 - - - - - - -
02/02:00am 7.6 SSW 12 18 - - 2.2 - - - - - - -
02/01:30am 7.4 SSW 11 15 - - 1.8 - - - - - - -
02/01:00am 7.5 SW 8 13 - - 1.8 - - - - - - -
02/12:30am 7.7 SW 7 9 - - 1.8 - - - - - - -
02/12:00am 7.8 SW 11 16 - - 1.8 - - - - - - -
 
Date/Time
CST
Temp

°C
Wind Pressure Rain
since 9am
mm
Weather Cloud Vis
km
Sea
Height
m
Swell
Dir
 
Speed
knots
Gust
knots
hPa Trend Height
m
Period
s
Dir
01/11:30pm 8.1 SW 10 14 - - 1.8 - - - - - - -
01/11:00pm 7.5 SW 8 11 - - 1.8 - - - - - - -
01/10:30pm 7.7 SW 9 12 - - 1.8 - - - - - - -
01/10:00pm 7.6 WSW 10 14 - - 1.8 - - - - - - -
01/09:30pm 5.8 W 7 9 - - 1.8 - - - - - - -
01/09:00pm 5.2 W 6 6 - - 1.8 - - - - - - -
01/08:30pm 6.1 WSW 5 6 - - 1.8 - - - - - - -
01/08:00pm 7.0 SW 8 10 - - 1.8 - - - - - - -
01/07:30pm 7.3 SSW 8 13 - - 1.8 - - - - - - -
01/07:00pm 7.3 SW 9 12 - - 1.8 - - - - - - -
01/06:30pm 7.7 SW 12 19 - - 1.8 - - - - - - -
01/06:00pm 7.3 WSW 10 12 - - 1.8 Recent precip. - - - - - -
01/05:30pm 7.9 WSW 14 20 - - 1.8 - - - - - - -
01/05:10pm 9.5 SW 16 28 - - 1.0 - - - - - - -
01/05:00pm 9.6 SW 14 20 - - 1.0 - - - - - - -
01/04:34pm 10.8 SW 17 27 - - 1.0 - - - - - - -
01/04:30pm 11.1 SW 16 22 - - 1.0 - - - - - - -
01/04:00pm 11.1 WSW 13 17 - - 1.0 - - - - - - -
01/03:30pm 10.4 WSW 13 20 - - 1.0 - - - - - - -
01/03:00pm 10.6 WSW 15 22 - - 1.0 Recent precip. - - - - - -
01/02:59pm 10.7 WSW 15 22 - - 1.0 - - - - - - -
01/02:30pm 12.0 W 8 12 - - 0.6 - - - - - - -
01/02:00pm 11.8 WSW 6 9 - - 0.6 - - - - - - -
01/01:30pm 10.0 WSW 10 15 - - 0.6 - - - - - - -
01/01:10pm 11.1 WSW 23 28 - - 0.0 - - - - - - -
01/01:00pm 13.9 SW 10 14 - - 0.0 - - - - - - -
01/12:30pm 13.1 W 15 21 - - 0.0 - - - - - - -
01/12:00pm 13.2 WSW 12 18 - - 0.0 - - - - - - -
01/11:30am 12.8 SW 10 13 - - 0.0 - - - - - - -
01/11:00am 13.4 W 11 16 - - 0.0 - - - - - - -
01/10:30am 12.8 SW 11 16 - - 0.0 - - - - - - -
01/10:00am 12.3 WSW 12 17 - - 0.0 - - - - - - -
01/09:30am 11.8 SW 12 17 - - 0.0 - - - - - - -
01/09:00am 11.3 WSW 11 15 - - 4.4 - - - - - - -
01/08:30am 10.5 WSW 9 13 - - 4.4 - - - - - - -
01/08:00am 9.7 WSW 8 11 - - 4.4 - - - - - - -
01/07:30am 8.9 WSW 8 11 - - 4.4 - - - - - - -
01/07:00am 7.9 WSW 6 8 - - 4.4 - - - - - - -
01/06:30am 8.1 WSW 6 7 - - 4.4 - - - - - - -
01/06:00am 9.2 WSW 6 9 - - 4.4 - - - - - - -
01/05:30am 9.7 WSW 10 15 - - 4.4 - - - - - - -
01/05:00am 10.1 WSW 6 9 - - 4.4 - - - - - - -
01/04:30am 10.2 W 5 6 - - 4.2 - - - - - - -
01/04:00am 10.3 WSW 5 6 - - 4.2 - - - - - - -
01/03:30am 10.5 W 5 7 - - 4.2 - - - - - - -
01/03:00am 10.6 WSW 5 8 - - 4.2 - - - - - - -
01/02:30am 10.8 WSW 7 9 - - 4.2 - - - - - - -
01/02:00am 10.9 WSW 6 8 - - 4.2 - - - - - - -
01/01:30am 10.9 WSW 7 9 - - 4.2 - - - - - - -
01/01:00am 11.1 WSW 7 9 - - 4.2 - - - - - - -
01/12:30am 11.2 W 6 7 - - 4.2 - - - - - - -
01/12:00am 11.2 W 7 10 - - 4.2 - - - - - - -
 
Date/Time
CST
Temp

°C
Wind Pressure Rain
since 9am
mm
Weather Cloud Vis
km
Sea
Height
m
Swell
Dir
 
Speed
knots
Gust
knots
hPa Trend Height
m
Period
s
Dir
31/11:30pm 11.4 WSW 8 14 - - 4.2 - - - - - - -
31/11:00pm 11.4 WSW 9 14 - - 4.2 - - - - - - -
31/10:30pm 11.4 WSW 10 13 - - 4.2 - - - - - - -
31/10:00pm 11.2 W 5 8 - - 4.2 - - - - - - -
31/09:30pm 11.2 WSW 4 5 - - 4.2 - - - - - - -
31/09:00pm 11.4 W 6 8 - - 4.0 Recent precip. - - - - - -
31/08:30pm 11.6 W 5 7 - - 3.8 - - - - - - -
31/08:00pm 12.0 W 11 16 - - 3.0 - - - - - - -
31/07:30pm 12.5 W 5 8 - - 1.6 - - - - - - -
31/07:00pm 12.6 NW 5 6 - - 0.4 - - - - - - -
31/06:30pm 12.8 NW 5 6 - - 0.0 - - - - - - -
31/06:00pm 13.1 NW 5 6 - - 0.0 - - - - - - -
31/05:30pm 13.6 NW 6 8 - - 0.0 - - - - - - -
31/05:00pm 14.2 NNW 7 9 - - 0.0 - - - - - - -
31/04:30pm 14.8 NNW 7 10 - - 0.0 - - - - - - -
31/04:00pm 15.3 NNW 5 8 - - 0.0 - - - - - - -
31/03:30pm 15.4 NNW 9 12 - - 0.0 - - - - - - -
31/03:00pm 15.4 NNW 11 13 - - 0.0 - - - - - - -
31/02:30pm 15.7 WNW 16 22 - - 0.0 - - - - - - -
31/02:00pm 16.7 NNW 15 23 - - 0.0 - - - - - - -
31/01:46pm 16.9 NNW 15 25 - - 0.0 - - - - - - -
31/01:30pm 16.9 N 13 20 - - 0.0 - - - - - - -
31/01:06pm 15.9 NNW 16 21 - - 0.0 - - - - - - -
31/01:00pm 15.7 N 7 10 - - 0.0 - - - - - - -
31/12:30pm 15.3 N 10 18 - - 0.0 - - - - - - -
31/12:00pm 15.2 N 11 20 - - 0.0 - - - - - - -
31/11:30am 15.5 N 10 18 - - 0.0 - - - - - - -
31/11:00am 15.7 NNW 12 17 - - 0.0 - - - - - - -
31/10:30am 17.2 NNW 15 21 - - 0.0 - - - - - - -
31/10:00am 15.8 NNW 12 18 - - 0.0 - - - - - - -
31/09:30am 15.2 N 14 19 - - 0.0 - - - - - - -
31/09:00am 15.0 NNW 12 17 - - 0.0 - - - - - - -
31/08:30am 14.8 NNW 11 15 - - 0.0 - - - - - - -
31/08:00am 14.1 N 10 14 - - 0.0 - - - - - - -
31/07:30am 13.6 N 10 13 - - 0.0 - - - - - - -
31/07:00am 13.3 N 9 12 - - 0.0 - - - - - - -
31/06:30am 13.5 N 9 13 - - 0.0 - - - - - - -
31/06:00am 14.0 NNW 10 14 - - 0.0 - - - - - - -
31/05:30am 14.3 NNW 11 15 - - 0.0 - - - - - - -
31/05:00am 14.4 NNW 12 17 - - 0.0 - - - - - - -
31/04:30am 14.4 NNW 9 13 - - 0.0 - - - - - - -
31/04:00am 14.0 NNW 9 12 - - 0.0 - - - - - - -
31/03:30am 13.7 NNW 7 9 - - 0.0 - - - - - - -
31/03:00am 14.4 NNW 8 14 - - 0.0 - - - - - - -

Other Formats:

Comma delimited format used in spreadsheet applications
http://www.bom.gov.au/fwo/IDS60701/IDS60701.94807.axf

JavaScript Object Notation format (JSON) in row-major order
http://www.bom.gov.au/fwo/IDS60701/IDS60701.94807.json